Portada
METAR-TAF:

METAR-TAF

Aeroports :

Tachikawa, Japó

latitud: 35-42N, longitud: 139-24E, altitud: 95 m

Observació

L'informe es va fer fa 4 hores i 39 minuts, a les 07:06 UTC
Vent 14 kt del Nord/Nord-Est amb ràfegues de 24 kt, variant entre Nord i Est/Nord-Est
Temperatura 4°C
Humitat 25%
Pressió 1019 hPa
Visibilitat 10 km o més
Escasses núvols a una alçada de 3000 ft

METAR: RJTC 190706Z 03014G24KT 360V060 9999 FEW030 04/M14 Q1019 RMK 1CU030 A3011

Hora: 20:45 (11:45 UTC)


TAF: manca

Observacions i pronòstics meteorològics de més de 4000 aeroports (METAR i TAF).

Les estacions disponibles són els punts grocs i vermells al mapa.

Posi el ratolí al punt desitjat per veure el nom de l'estació.

Feu clic per veure les observacions i els pronòstics meteorològics.

Per canviar el mapa: feu clic els botons verds amb una creu de color negre per apropar; al botó verd amb un guió per allunyar la imatge; o en les fletxes verdes per a mapes adjacents.


METAR-TAF: